Time;durP1;ratioP1;P1;durP2;ratioP2;P2;SDS_P1;SDS_P2;PMS_P1;PMS_P2;Temp;Humidity;BMP_temperature;BMP_pressure;BME280_temperature;BME280_humidity;BME280_pressure;Samples;Min_cycle;Max_cycle;Signal;HPM_P1;HPM_P2
2022/12/24 00:01:00;;;;;;;61.92;8.27;;;;;;;8.57;100.00;100720.72;5038655;28;20116;-76
2022/12/24 00:03:28;;;;;;;62.33;8.35;;;;;;;8.63;100.00;100719.97;5036738;28;20033;-77
2022/12/24 00:05:54;;;;;;;57.55;7.50;;;;;;;8.57;100.00;100720.72;5042837;28;20036;-77
2022/12/24 00:08:19;;;;;;;55.70;7.97;;;;;;;8.55;100.00;100720.06;5036017;28;20033;-77
2022/12/24 00:10:49;;;;;;;58.00;10.82;;;;;;;8.44;100.00;100728.72;5035337;28;20658;-76
2022/12/24 00:13:14;;;;;;;63.80;8.75;;;;;;;8.45;100.00;100735.88;5038526;28;20032;-77
2022/12/24 00:15:39;;;;;;;57.78;10.15;;;;;;;8.44;100.00;100734.19;5039910;28;20047;-76
2022/12/24 00:18:05;;;;;;;64.05;8.57;;;;;;;8.41;100.00;100737.25;5041448;28;20031;-76
2022/12/24 00:20:30;;;;;;;60.63;7.65;;;;;;;8.33;100.00;100735.47;5032000;28;20140;-76
2022/12/24 00:22:55;;;;;;;60.38;7.55;;;;;;;8.39;100.00;100740.19;5040022;28;20056;-76
2022/12/24 00:25:21;;;;;;;64.68;10.30;;;;;;;8.39;100.00;100734.72;5039864;28;20102;-77
2022/12/24 00:27:46;;;;;;;68.38;11.38;;;;;;;8.42;100.00;100744.41;5040354;28;20476;-76
2022/12/24 00:30:11;;;;;;;62.67;8.50;;;;;;;8.40;100.00;100747.34;5033503;28;20029;-77
2022/12/24 00:32:37;;;;;;;66.25;8.90;;;;;;;8.37;100.00;100747.72;5039285;28;20049;-76
2022/12/24 00:35:03;;;;;;;57.63;8.25;;;;;;;8.35;100.00;100752.53;5036517;28;20031;-77
2022/12/24 00:37:29;;;;;;;69.07;9.00;;;;;;;8.31;100.00;100763.97;5037476;28;20481;-76
2022/12/24 00:39:55;;;;;;;58.25;7.88;;;;;;;8.39;100.00;100767.47;5036208;28;20041;-77
2022/12/24 00:42:20;;;;;;;69.57;8.75;;;;;;;8.38;100.00;100770.41;5034143;28;20100;-77
2022/12/24 00:44:45;;;;;;;78.95;9.68;;;;;;;8.38;100.00;100768.50;5044203;28;20033;-76
2022/12/24 00:47:11;;;;;;;72.60;10.73;;;;;;;8.36;100.00;100767.00;5039665;28;20021;-77
2022/12/24 00:49:36;;;;;;;53.95;7.88;;;;;;;8.33;100.00;100770.94;5041730;28;20036;-76
2022/12/24 00:52:02;;;;;;;59.83;10.43;;;;;;;8.34;100.00;100763.63;5041695;28;20025;-75
2022/12/24 00:54:30;;;;;;;62.83;7.65;;;;;;;8.30;100.00;100776.78;5040846;28;20124;-77
2022/12/24 00:56:57;;;;;;;50.92;8.05;;;;;;;8.23;100.00;100786.72;5036238;28;20037;-76
2022/12/24 00:59:22;;;;;;;53.72;7.50;;;;;;;8.33;100.00;100787.31;5039512;28;20117;-77
2022/12/24 01:01:47;;;;;;;66.32;8.40;;;;;;;8.34;100.00;100790.91;5042532;28;20033;-76
2022/12/24 01:06:57;;;;;;;56.85;6.28;;;;;;;8.21;100.00;100790.66;5034313;28;20568;-78
2022/12/24 01:09:22;;;;;;;73.95;9.07;;;;;;;8.25;100.00;100790.13;5035645;28;20112;-76
2022/12/24 01:11:47;;;;;;;44.78;6.53;;;;;;;8.17;100.00;100789.31;5038215;28;20083;-76
2022/12/24 01:14:13;;;;;;;51.80;6.20;;;;;;;8.15;100.00;100797.69;5033295;28;20033;-76
2022/12/24 01:16:38;;;;;;;38.58;5.53;;;;;;;8.09;100.00;100795.69;5040574;28;20033;-76
2022/12/24 01:19:03;;;;;;;47.85;6.45;;;;;;;8.16;100.00;100796.63;5038701;28;20029;-76
2022/12/24 01:21:30;;;;;;;41.85;7.20;;;;;;;8.11;100.00;100804.53;5037755;28;20049;-76
2022/12/24 01:23:55;;;;;;;49.50;6.93;;;;;;;8.09;100.00;100820.25;5036780;28;20029;-77
2022/12/24 01:26:21;;;;;;;46.65;5.93;;;;;;;8.07;100.00;100813.25;5035401;28;20133;-76
2022/12/24 01:28:46;;;;;;;49.22;9.23;;;;;;;8.02;100.00;100816.50;5038282;28;20037;-76
2022/12/24 01:31:14;;;;;;;41.97;6.32;;;;;;;7.94;100.00;100821.19;5042350;28;20432;-77
2022/12/24 01:33:40;;;;;;;37.97;7.53;;;;;;;7.87;100.00;100815.63;5037782;28;20033;-76
2022/12/24 01:36:06;;;;;;;47.95;6.30;;;;;;;7.92;100.00;100823.25;5036833;28;20809;-77
2022/12/24 01:38:32;;;;;;;47.58;5.03;;;;;;;7.94;100.00;100823.91;5035255;28;20064;-77
2022/12/24 01:43:41;;;;;;;36.85;6.13;;;;;;;8.09;100.00;100836.59;5041464;28;20079;-76
2022/12/24 01:46:16;;;;;;;58.95;7.95;;;;;;;8.04;100.00;100838.16;5031199;28;20083;-76
2022/12/24 01:48:50;;;;;;;54.47;7.90;;;;;;;8.12;100.00;100840.84;5040446;28;20017;-76
2022/12/24 01:51:19;;;;;;;55.22;6.53;;;;;;;8.18;100.00;100840.94;5039079;28;20428;-77
2022/12/24 01:53:50;;;;;;;57.13;7.28;;;;;;;8.29;100.00;100853.38;5039908;28;20143;-76
2022/12/24 01:56:17;;;;;;;52.63;8.13;;;;;;;8.25;100.00;100847.44;5040101;28;20029;-77
2022/12/24 01:58:45;;;;;;;;;;;;;;;8.29;100.00;100851.50;5032447;28;20029;-77
2022/12/24 02:01:10;;;;;;;50.35;5.93;;;;;;;8.27;100.00;100864.44;5039234;28;20483;-77
2022/12/24 02:03:36;;;;;;;55.05;11.45;;;;;;;8.32;100.00;100862.03;5037668;28;20112;-77
2022/12/24 02:06:02;;;;;;;75.72;7.88;;;;;;;8.33;100.00;100873.81;5031138;28;20493;-77
2022/12/24 02:08:38;;;;;;;67.65;7.32;;;;;;;8.36;100.00;100863.38;5039613;28;20025;-77
2022/12/24 02:11:12;;;;;;;77.10;8.65;;;;;;;8.50;100.00;100873.47;5036915;28;20511;-77
2022/12/24 02:13:38;;;;;;;58.03;7.35;;;;;;;8.54;100.00;100876.72;5036101;28;20037;-77
2022/12/24 02:16:35;;;;;;;54.30;8.68;;;;;;;8.55;100.00;100871.03;5036636;28;20041;-77
2022/12/24 02:19:28;;;;;;;63.92;7.95;;;;;;;8.52;100.00;100874.16;5035475;28;20033;-77
2022/12/24 02:22:12;;;;;;;60.30;7.32;;;;;;;8.55;100.00;100867.47;5048775;28;20034;-77
2022/12/24 02:25:05;;;;;;;68.20;7.95;;;;;;;8.65;100.00;100876.28;5037702;28;20109;-77
2022/12/24 02:27:54;;;;;;;62.13;7.07;;;;;;;8.69;100.00;100869.38;5042207;28;20055;-76
2022/12/24 02:30:33;;;;;;;65.90;8.27;;;;;;;8.68;100.00;100875.88;5040680;28;20025;-76
2022/12/24 02:33:10;;;;;;;64.07;8.23;;;;;;;8.63;100.00;100862.78;5041191;28;20520;-77
2022/12/24 02:36:03;;;;;;;54.47;8.23;;;;;;;8.62;100.00;100866.56;5040865;28;20046;-77
2022/12/24 02:38:53;;;;;;;58.58;7.20;;;;;;;8.58;100.00;100864.38;5034427;28;20124;-78
2022/12/24 02:41:24;;;;;;;78.20;8.10;;;;;;;8.58;100.00;100870.69;5041030;28;20037;-77
2022/12/24 02:43:52;;;;;;;52.38;6.53;;;;;;;8.45;100.00;100869.59;5029990;28;20496;-77
2022/12/24 02:46:23;;;;;;;71.00;10.20;;;;;;;8.49;100.00;100866.31;5050266;28;20033;-77
2022/12/24 02:48:49;;;;;;;58.72;8.75;;;;;;;8.47;100.00;100870.25;5042822;28;20496;-76
2022/12/24 02:51:15;;;;;;;55.15;8.70;;;;;;;8.43;100.00;100877.97;5042909;28;20437;-77
2022/12/24 02:53:41;;;;;;;54.20;7.70;;;;;;;8.46;100.00;100882.22;5036630;28;20516;-77
2022/12/24 02:56:13;;;;;;;63.22;7.50;;;;;;;8.56;100.00;100891.88;5030435;28;20026;-77
2022/12/24 02:59:02;;;;;;;50.47;7.05;;;;;;;8.55;100.00;100894.78;5041869;28;20032;-77
2022/12/24 03:02:03;;;;;;;57.80;9.63;;;;;;;8.64;100.00;100897.25;5045609;28;20084;-77
2022/12/24 03:04:56;;;;;;;58.70;7.90;;;;;;;8.68;100.00;100898.59;4979263;28;20030;-77
2022/12/24 03:07:41;;;;;;;40.88;6.10;;;;;;;8.56;100.00;100893.75;5045844;28;20036;-77
2022/12/24 03:10:28;;;;;;;52.88;7.22;;;;;;;8.56;100.00;100900.06;5036802;28;20037;-77
2022/12/24 03:13:09;;;;;;;60.53;7.65;;;;;;;8.70;100.00;100898.41;5038766;28;20044;-77
2022/12/24 03:15:37;;;;;;;48.53;6.32;;;;;;;8.69;100.00;100900.28;5048833;28;20129;-76
2022/12/24 03:18:06;;;;;;;47.75;5.85;;;;;;;8.64;100.00;100901.88;5041750;28;20084;-77
2022/12/24 03:20:46;;;;;;;55.83;7.22;;;;;;;8.87;100.00;100899.97;5040757;28;20029;-77
2022/12/24 03:23:12;;;;;;;59.95;8.13;;;;;;;8.92;100.00;100908.44;5042774;28;20035;-78
2022/12/24 03:25:40;;;;;;;66.10;6.78;;;;;;;8.93;100.00;100904.69;5040990;28;20107;-77
2022/12/24 03:28:08;;;;;;;65.88;7.85;;;;;;;8.92;100.00;100905.72;5040484;28;20032;-77
2022/12/24 03:30:33;;;;;;;46.75;6.40;;;;;;;8.94;100.00;100914.56;5041459;28;20520;-77
2022/12/24 03:32:59;;;;;;;62.50;7.50;;;;;;;9.03;100.00;100902.53;5043941;28;20084;-77
2022/12/24 03:35:25;;;;;;;47.03;5.93;;;;;;;9.02;100.00;100909.88;5039380;28;20029;-76
2022/12/24 03:37:50;;;;;;;46.33;8.05;;;;;;;9.05;100.00;100897.72;5034903;28;20361;-76
2022/12/24 03:40:16;;;;;;;56.17;7.40;;;;;;;9.10;100.00;100912.53;5038636;28;20029;-80
2022/12/24 03:42:41;;;;;;;63.00;8.13;;;;;;;9.14;100.00;100910.28;5035715;28;20048;-79
2022/12/24 03:45:07;;;;;;;48.17;6.78;;;;;;;9.15;100.00;100922.88;5038490;28;20542;-79
2022/12/24 03:47:32;;;;;;;51.00;7.30;;;;;;;9.18;100.00;100917.06;5036955;28;20136;-80
2022/12/24 03:49:59;;;;;;;49.42;7.65;;;;;;;9.20;100.00;100926.78;5040974;28;20453;-81
2022/12/24 03:52:24;;;;;;;49.83;7.22;;;;;;;9.23;100.00;100925.56;5042458;28;20322;-79
2022/12/24 03:54:50;;;;;;;57.65;7.10;;;;;;;9.25;100.00;100918.00;5040394;28;20136;-77
2022/12/24 03:57:15;;;;;;;51.05;6.80;;;;;;;9.21;100.00;100924.88;5040696;28;20036;-76
2022/12/24 03:59:41;;;;;;;65.13;7.70;;;;;;;9.26;100.00;100919.69;5038203;28;20785;-77
2022/12/24 04:02:06;;;;;;;66.25;8.93;;;;;;;9.37;100.00;100924.69;5041393;28;20087;-77
2022/12/24 04:04:32;;;;;;;79.68;9.23;;;;;;;9.43;100.00;100921.22;5036850;28;20508;-77
2022/12/24 04:06:58;;;;;;;73.90;9.60;;;;;;;9.39;100.00;100925.38;5040142;28;20028;-77
2022/12/24 04:09:24;;;;;;;62.97;10.73;;;;;;;9.37;100.00;100925.56;5040462;28;20029;-77
2022/12/24 04:11:49;;;;;;;58.90;6.97;;;;;;;9.42;100.00;100925.00;5043255;28;20481;-77
2022/12/24 04:14:14;;;;;;;76.18;8.40;;;;;;;9.44;100.00;100933.88;5038375;28;20485;-77
2022/12/24 04:16:40;;;;;;;74.07;9.38;;;;;;;9.45;100.00;100935.56;5041973;28;20021;-76
2022/12/24 04:19:05;;;;;;;79.32;9.90;;;;;;;9.48;100.00;100925.09;5039604;28;20514;-77
2022/12/24 04:21:30;;;;;;;73.53;10.53;;;;;;;9.51;100.00;100935.63;5042635;28;20045;-77
2022/12/24 04:23:56;;;;;;;68.73;10.53;;;;;;;9.52;100.00;100928.28;5035973;28;20491;-77
2022/12/24 04:26:21;;;;;;;68.65;9.52;;;;;;;9.53;100.00;100938.19;5036947;28;20052;-77
2022/12/24 04:28:47;;;;;;;72.07;9.18;;;;;;;9.48;100.00;100943.38;5038815;28;20448;-76
2022/12/24 04:31:15;;;;;;;66.38;8.57;;;;;;;9.48;100.00;100946.09;5041091;28;20028;-76
2022/12/24 04:33:41;;;;;;;70.53;9.73;;;;;;;9.53;100.00;100954.59;5035965;28;20117;-76
2022/12/24 04:36:09;;;;;;;81.32;10.75;;;;;;;9.51;100.00;100941.09;5037539;28;20115;-76
2022/12/24 04:38:34;;;;;;;73.15;8.68;;;;;;;9.49;100.00;100947.78;5035029;28;20111;-76
2022/12/24 04:41:02;;;;;;;68.07;9.27;;;;;;;9.44;100.00;100958.47;5038338;28;20439;-77
2022/12/24 04:43:28;;;;;;;86.40;10.32;;;;;;;9.45;100.00;100961.00;5038444;28;20495;-77
2022/12/24 04:45:55;;;;;;;82.97;10.98;;;;;;;9.52;100.00;100951.03;5033457;28;20107;-76
2022/12/24 04:48:20;;;;;;;74.40;10.05;;;;;;;9.60;100.00;100952.81;5036134;28;20481;-77
2022/12/24 04:50:46;;;;;;;81.50;9.93;;;;;;;9.61;100.00;100962.72;5038961;28;20060;-76
2022/12/24 04:53:13;;;;;;;76.60;7.95;;;;;;;9.50;100.00;100944.88;5034550;28;20037;-76
2022/12/24 04:55:44;;;;;;;81.65;10.05;;;;;;;9.50;100.00;100961.28;5041763;28;20475;-76
2022/12/24 04:58:09;;;;;;;70.47;9.00;;;;;;;9.55;100.00;100958.00;5040712;28;20020;-76
2022/12/24 05:00:34;;;;;;;77.47;9.20;;;;;;;9.52;100.00;100961.09;5039475;28;20492;-76
2022/12/24 05:03:00;;;;;;;73.73;10.30;;;;;;;9.57;100.00;100972.34;5037187;28;20075;-77
2022/12/24 05:05:25;;;;;;;84.05;11.02;;;;;;;9.54;100.00;100980.91;5036449;28;20451;-76
2022/12/24 05:07:51;;;;;;;79.32;10.77;;;;;;;9.54;100.00;100987.22;5038506;28;20036;-76
2022/12/24 05:10:16;;;;;;;93.32;9.77;;;;;;;9.53;100.00;100979.22;5035490;28;20369;-76
2022/12/24 05:12:41;;;;;;;71.47;9.07;;;;;;;9.62;100.00;100980.81;5037088;28;20552;-76
2022/12/24 05:15:07;;;;;;;62.22;7.90;;;;;;;9.58;100.00;100976.75;5035221;28;20036;-76
2022/12/24 05:17:32;;;;;;;64.45;8.55;;;;;;;9.57;100.00;100983.28;5036084;28;20056;-77
2022/12/24 05:19:58;;;;;;;85.90;10.27;;;;;;;9.60;100.00;100971.97;5036710;28;20408;-76
2022/12/24 05:27:53;;;;;;;65.22;10.07;;;;;;;9.58;100.00;100969.41;5041764;28;20031;-76
2022/12/24 05:30:19;;;;;;;81.88;10.38;;;;;;;9.62;100.00;100972.63;5036584;28;20504;-76
2022/12/24 05:32:44;;;;;;;63.58;9.23;;;;;;;9.50;100.00;100972.22;5034807;28;20048;-76
2022/12/24 05:35:10;;;;;;;80.10;11.23;;;;;;;9.54;100.00;100983.63;5038272;28;20032;-76
2022/12/24 05:37:35;;;;;;;80.13;10.68;;;;;;;9.54;100.00;100989.09;5041843;28;20037;-76
2022/12/24 05:40:00;;;;;;;67.88;10.10;;;;;;;9.54;100.00;100989.09;5040547;28;20028;-76
2022/12/24 05:42:26;;;;;;;75.85;10.60;;;;;;;9.58;100.00;101001.38;5036232;28;20099;-77
2022/12/24 05:44:52;;;;;;;68.85;10.02;;;;;;;9.58;100.00;100991.28;5032454;28;20380;-77
2022/12/24 05:47:18;;;;;;;74.80;9.93;;;;;;;9.59;100.00;101009.41;5036549;28;20099;-76
2022/12/24 05:49:43;;;;;;;82.07;9.80;;;;;;;9.58;100.00;101002.22;5038366;28;20041;-76
2022/12/24 05:52:08;;;;;;;70.13;8.90;;;;;;;9.52;100.00;101007.59;5037888;28;20121;-76
2022/12/24 05:54:34;;;;;;;81.63;9.15;;;;;;;9.53;100.00;101014.75;5040883;28;20029;-77
2022/12/24 05:56:59;;;;;;;70.77;10.00;;;;;;;9.58;100.00;101015.91;5034434;28;20037;-76
2022/12/24 05:59:25;;;;;;;68.82;8.25;;;;;;;9.55;100.00;101023.63;5040576;28;20412;-76
2022/12/24 06:01:50;;;;;;;69.05;9.55;;;;;;;9.58;100.00;101017.78;5032486;28;20163;-76
2022/12/24 06:04:15;;;;;;;59.65;7.88;;;;;;;9.57;100.00;101027.88;5036378;28;20028;-76
2022/12/24 06:06:41;;;;;;;59.70;8.07;;;;;;;9.61;100.00;101039.28;5037036;28;20423;-76
2022/12/24 06:09:06;;;;;;;65.65;9.25;;;;;;;9.60;100.00;101034.88;5032588;28;20048;-76
2022/12/24 06:11:32;;;;;;;67.28;9.93;;;;;;;9.50;100.00;101031.53;5042705;28;20119;-75
2022/12/24 06:13:57;;;;;;;79.73;8.23;;;;;;;9.54;100.00;101041.06;5039642;28;20349;-76
2022/12/24 06:16:24;;;;;;;65.35;9.82;;;;;;;9.52;100.00;101041.25;5041296;28;20052;-76
2022/12/24 06:18:50;;;;;;;63.03;9.20;;;;;;;9.45;100.00;101034.81;5036965;28;20481;-76
2022/12/24 06:21:15;;;;;;;62.50;9.00;;;;;;;9.41;100.00;101040.84;5039103;28;20055;-76
2022/12/24 06:23:42;;;;;;;73.30;8.73;;;;;;;9.36;100.00;101032.34;5041789;28;20393;-76
2022/12/24 06:26:11;;;;;;;60.78;7.90;;;;;;;9.22;100.00;101033.16;5038667;28;20476;-76
2022/12/24 06:28:37;;;;;;;58.15;7.00;;;;;;;9.17;100.00;101041.91;5035411;28;20511;-76
2022/12/24 06:31:04;;;;;;;69.40;8.88;;;;;;;9.13;100.00;101042.47;5037154;28;20123;-76
2022/12/24 06:33:34;;;;;;;53.72;7.60;;;;;;;9.14;100.00;101041.44;5032623;28;20025;-76
2022/12/24 06:35:59;;;;;;;55.80;8.57;;;;;;;9.11;100.00;101041.78;5031281;28;20081;-76
2022/12/24 06:38:25;;;;;;;55.05;8.75;;;;;;;9.01;100.00;101047.50;5034104;28;20041;-76
2022/12/24 06:40:51;;;;;;;65.13;8.10;;;;;;;9.01;100.00;101046.66;5038158;28;20366;-76
2022/12/24 06:43:16;;;;;;;53.90;6.72;;;;;;;8.98;100.00;101049.75;5033654;28;20041;-76
2022/12/24 06:45:46;;;;;;;50.00;8.55;;;;;;;8.93;100.00;101046.72;5040347;28;20021;-76
2022/12/24 06:48:13;;;;;;;64.38;9.10;;;;;;;8.90;100.00;101038.88;5039816;28;20025;-76
2022/12/24 06:50:38;;;;;;;56.50;6.97;;;;;;;8.82;100.00;101041.69;5040423;28;20032;-76
2022/12/24 06:53:03;;;;;;;72.60;8.68;;;;;;;8.83;100.00;101044.25;5039219;28;20033;-76
2022/12/24 06:55:30;;;;;;;55.53;7.35;;;;;;;8.82;100.00;101052.59;5037251;28;20036;-76
2022/12/24 06:57:56;;;;;;;59.95;8.05;;;;;;;8.90;100.00;101055.25;5031979;28;20517;-76
2022/12/24 07:00:21;;;;;;;50.78;7.18;;;;;;;8.85;100.00;101063.16;5039803;28;20037;-76
2022/12/24 07:02:47;;;;;;;50.45;7.85;;;;;;;8.94;100.00;101070.28;5040866;28;20437;-76
2022/12/24 07:05:13;;;;;;;55.17;8.90;;;;;;;8.89;100.00;101068.09;5042982;28;20388;-76
2022/12/24 07:07:41;;;;;;;59.47;8.43;;;;;;;9.03;100.00;101067.28;5039536;28;20030;-76
2022/12/24 07:10:07;;;;;;;53.92;6.10;;;;;;;9.08;100.00;101062.13;5044931;28;20106;-76
2022/12/24 07:12:34;;;;;;;73.80;9.07;;;;;;;9.08;100.00;101067.59;5043755;28;20073;-76
2022/12/24 07:14:59;;;;;;;45.95;6.95;;;;;;;9.16;100.00;101073.00;5041859;28;20029;-76
2022/12/24 07:17:24;;;;;;;80.45;10.55;;;;;;;9.19;100.00;101071.81;5040403;28;20043;-76
2022/12/24 07:19:50;;;;;;;53.40;6.68;;;;;;;9.19;100.00;101082.72;5039841;28;20571;-76
2022/12/24 07:22:15;;;;;;;73.00;8.98;;;;;;;9.20;100.00;101088.03;5036262;28;20037;-76
2022/12/24 07:24:41;;;;;;;61.67;7.65;;;;;;;9.23;100.00;101095.00;5042871;28;20031;-76
2022/12/24 07:27:07;;;;;;;50.65;8.13;;;;;;;9.11;100.00;101100.03;5041243;28;20043;-76
2022/12/24 07:29:33;;;;;;;61.20;9.27;;;;;;;9.11;100.00;101099.16;5037478;28;20402;-76
2022/12/24 07:31:58;;;;;;;53.65;7.13;;;;;;;9.15;100.00;101108.72;5044803;28;20049;-76
2022/12/24 07:34:23;;;;;;;62.90;7.47;;;;;;;9.14;100.00;101113.31;5039291;28;20448;-76
2022/12/24 07:36:49;;;;;;;67.37;7.00;;;;;;;9.20;100.00;101119.97;5038983;28;20025;-76
2022/12/24 07:39:14;;;;;;;57.10;8.30;;;;;;;9.25;100.00;101125.72;5043694;28;20103;-76
2022/12/24 07:41:39;;;;;;;56.88;8.02;;;;;;;9.23;100.00;101134.09;5040012;28;20528;-76
2022/12/24 07:44:06;;;;;;;57.53;8.25;;;;;;;9.23;100.00;101136.00;5040937;28;20028;-76
2022/12/24 07:46:31;;;;;;;57.90;7.73;;;;;;;9.20;100.00;101131.75;5043863;28;20029;-76
2022/12/24 07:48:56;;;;;;;57.85;8.18;;;;;;;9.19;100.00;101132.75;5046064;28;20285;-76
2022/12/24 07:51:22;;;;;;;49.40;8.10;;;;;;;9.14;100.00;101140.66;5046055;28;20044;-76
2022/12/24 07:53:48;;;;;;;54.05;7.68;;;;;;;9.04;100.00;101141.91;5039038;28;20025;-75
2022/12/24 07:56:14;;;;;;;68.68;9.60;;;;;;;9.05;100.00;101143.63;5042840;28;20838;-76
2022/12/24 07:58:40;;;;;;;54.72;7.20;;;;;;;9.00;100.00;101149.63;5034153;28;20032;-76
2022/12/24 08:01:07;;;;;;;67.90;8.83;;;;;;;8.90;100.00;101153.59;5034793;28;20045;-76
2022/12/24 08:03:32;;;;;;;;;;;;;;;8.92;100.00;101154.28;5035939;28;20038;-76
2022/12/24 08:05:58;;;;;;;58.72;7.82;;;;;;;8.95;100.00;101162.97;5030181;28;20011;-77
2022/12/24 08:08:24;;;;;;;45.17;9.65;;;;;;;8.93;100.00;101154.13;5037749;28;20393;-77
2022/12/24 08:10:50;;;;;;;44.90;7.25;;;;;;;8.92;100.00;101165.22;5034368;28;20473;-78
2022/12/24 08:13:16;;;;;;;49.73;8.57;;;;;;;8.94;100.00;101166.75;5038788;28;20044;-77
2022/12/24 08:15:41;;;;;;;55.15;7.43;;;;;;;8.92;100.00;101168.78;5038225;28;20080;-76
2022/12/24 08:18:07;;;;;;;52.20;8.52;;;;;;;8.86;100.00;101176.88;5039975;28;20044;-76
2022/12/24 08:20:33;;;;;;;57.42;8.35;;;;;;;8.90;100.00;101180.91;5041671;28;20388;-77
2022/12/24 08:22:58;;;;;;;57.13;8.90;;;;;;;8.85;100.00;101184.19;5040326;28;20172;-78
2022/12/24 08:25:23;;;;;;;60.40;8.30;;;;;;;8.81;100.00;101190.22;5038328;28;20041;-78
2022/12/24 08:27:49;;;;;;;50.97;9.52;;;;;;;8.83;100.00;101189.00;5030946;28;20111;-79
2022/12/24 08:30:15;;;;;;;52.40;7.17;;;;;;;8.88;100.00;101197.50;5037368;28;20578;-77
2022/12/24 08:32:40;;;;;;;67.57;9.05;;;;;;;8.82;100.00;101191.91;5039476;28;20046;-78
2022/12/24 08:35:06;;;;;;;50.55;8.00;;;;;;;8.75;100.00;101190.91;5035120;28;20103;-78
2022/12/24 08:37:31;;;;;;;63.60;8.57;;;;;;;8.79;100.00;101201.31;5041338;28;20499;-77
2022/12/24 08:39:57;;;;;;;50.42;8.43;;;;;;;8.81;100.00;101204.69;5037091;28;20083;-77
2022/12/24 08:42:22;;;;;;;49.95;7.82;;;;;;;8.83;100.00;101219.03;5038813;28;20371;-78
2022/12/24 08:44:48;;;;;;;60.90;6.78;;;;;;;8.86;100.00;101220.56;5038194;28;20096;-77
2022/12/24 08:47:13;;;;;;;57.90;7.93;;;;;;;8.91;100.00;101224.47;5035851;28;20030;-78
2022/12/24 08:49:39;;;;;;;54.72;6.65;;;;;;;8.87;100.00;101220.38;5038053;28;20047;-76
2022/12/24 08:52:05;;;;;;;57.30;7.47;;;;;;;8.93;100.00;101235.22;5040830;28;20400;-78
2022/12/24 08:54:30;;;;;;;48.55;7.22;;;;;;;8.95;100.00;101228.53;5038259;28;20051;-79
2022/12/24 08:56:56;;;;;;;55.63;7.28;;;;;;;8.96;100.00;101230.25;5037631;28;20128;-79
2022/12/24 08:59:21;;;;;;;43.70;7.57;;;;;;;8.97;100.00;101236.56;5035393;28;20381;-78
2022/12/24 09:01:47;;;;;;;50.90;8.27;;;;;;;9.05;100.00;101251.03;5040834;28;20021;-78
2022/12/24 09:04:12;;;;;;;54.50;8.00;;;;;;;9.11;100.00;101244.88;5038446;28;20483;-78
2022/12/24 09:06:38;;;;;;;50.97;8.43;;;;;;;9.16;100.00;101249.78;5035288;28;20078;-78
2022/12/24 09:09:03;;;;;;;53.70;6.95;;;;;;;9.30;100.00;101252.59;5028780;28;20060;-78
2022/12/24 09:11:29;;;;;;;56.88;9.55;;;;;;;9.37;100.00;101250.88;5036293;28;20029;-78
2022/12/24 09:13:55;;;;;;;54.97;8.77;;;;;;;9.47;100.00;101245.19;5035278;28;20103;-78
2022/12/24 09:16:20;;;;;;;52.53;7.55;;;;;;;9.49;100.00;101243.97;5038035;28;20028;-78
2022/12/24 09:18:46;;;;;;;65.50;8.20;;;;;;;9.51;100.00;101254.72;5041278;28;20633;-78
2022/12/24 09:21:14;;;;;;;74.57;8.48;;;;;;;9.50;100.00;101263.97;5034582;28;20472;-79
2022/12/24 09:23:42;;;;;;;44.40;7.47;;;;;;;9.40;100.00;101266.06;5037517;28;20025;-78
2022/12/24 09:26:12;;;;;;;66.97;8.68;;;;;;;9.34;100.00;101266.78;5035849;28;21091;-80
2022/12/24 09:28:38;;;;;;;61.33;8.30;;;;;;;9.27;100.00;101283.06;5034880;28;20041;-80
2022/12/24 09:31:03;;;;;;;50.97;7.65;;;;;;;9.28;100.00;101275.72;5029509;28;20074;-76
2022/12/24 09:33:32;;;;;;;36.43;6.87;;;;;;;9.29;100.00;101278.25;5032062;28;20053;-76
2022/12/24 09:35:58;;;;;;;57.08;8.30;;;;;;;9.31;100.00;101270.75;5038494;28;20033;-77
2022/12/24 09:38:23;;;;;;;52.60;8.27;;;;;;;9.39;100.00;101286.25;5037257;28;20638;-81
2022/12/24 09:40:49;;;;;;;59.50;8.83;;;;;;;9.40;100.00;101287.94;5036075;28;20131;-79
2022/12/24 09:43:21;;;;;;;50.47;8.03;;;;;;;9.58;100.00;101286.66;5029256;28;20630;-78
2022/12/24 09:46:00;;;;;;;52.75;7.78;;;;;;;9.70;100.00;101300.75;5033665;28;20757;-77
2022/12/24 09:48:30;;;;;;;55.03;8.18;;;;;;;9.71;100.00;101286.88;5029748;28;20048;-77
2022/12/24 09:51:10;;;;;;;46.90;6.70;;;;;;;9.74;100.00;101305.69;5033015;28;20526;-78
2022/12/24 09:53:39;;;;;;;59.00;8.25;;;;;;;9.76;100.00;101311.81;5036363;28;20097;-80
2022/12/24 09:56:38;;;;;;;47.85;8.35;;;;;;;9.87;100.00;101302.38;5033804;28;20358;-78
2022/12/24 09:59:10;;;;;;;52.08;7.43;;;;;;;9.91;100.00;101317.34;5045099;28;20041;-77
2022/12/24 10:01:35;;;;;;;66.47;8.40;;;;;;;9.95;100.00;101311.38;5038886;28;20479;-78
2022/12/24 10:04:06;;;;;;;69.28;8.65;;;;;;;10.01;100.00;101326.19;5031524;28;20055;-77
2022/12/24 10:06:43;;;;;;;65.78;8.18;;;;;;;10.03;100.00;101324.13;5036766;28;20021;-77
2022/12/24 10:09:44;;;;;;;55.92;8.60;;;;;;;10.10;100.00;101320.50;5030852;28;20030;-78
2022/12/24 10:12:21;;;;;;;44.90;7.38;;;;;;;10.08;100.00;101314.38;5035455;28;20064;-78
2022/12/24 10:15:07;;;;;;;61.03;8.55;;;;;;;10.05;100.00;101317.47;5031684;28;20033;-77
2022/12/24 10:17:59;;;;;;;52.22;7.00;;;;;;;10.09;100.00;101321.53;5037789;28;20526;-77
2022/12/24 10:20:39;;;;;;;50.42;6.75;;;;;;;10.13;100.00;101319.28;5033032;28;20025;-78
2022/12/24 10:23:14;;;;;;;56.35;6.78;;;;;;;10.08;100.00;101310.78;5030209;28;20040;-77
2022/12/24 10:25:55;;;;;;;57.00;7.20;;;;;;;10.16;100.00;101321.66;5032175;28;20024;-78
2022/12/24 10:28:27;;;;;;;59.33;7.13;;;;;;;10.25;100.00;101312.34;5034569;28;20096;-78
2022/12/24 10:30:58;;;;;;;60.67;7.20;;;;;;;10.23;100.00;101312.53;5034445;28;20049;-78
2022/12/24 10:33:45;;;;;;;41.90;5.85;;;;;;;10.20;100.00;101329.31;5038954;28;20848;-77
2022/12/24 10:36:23;;;;;;;56.40;7.72;;;;;;;10.15;100.00;101329.00;5032702;28;20029;-77
2022/12/24 10:38:49;;;;;;;56.70;6.05;;;;;;;10.08;100.00;101328.03;5040762;28;20515;-78
2022/12/24 10:41:15;;;;;;;51.83;7.93;;;;;;;10.09;100.00;101328.91;5041458;28;20108;-77
2022/12/24 10:43:43;;;;;;;39.72;5.57;;;;;;;10.12;100.00;101326.66;5040520;28;20026;-78
2022/12/24 10:46:35;;;;;;;55.20;7.63;;;;;;;10.12;100.00;101339.47;5039790;28;20420;-78
2022/12/24 10:49:06;;;;;;;61.03;9.57;;;;;;;10.13;100.00;101338.44;5047529;28;20033;-78
2022/12/24 10:51:50;;;;;;;54.58;8.52;;;;;;;10.11;100.00;101335.03;5045252;28;20034;-78
2022/12/24 10:54:18;;;;;;;63.17;6.82;;;;;;;10.07;100.00;101333.69;5046987;28;20037;-78
2022/12/24 10:56:51;;;;;;;49.10;7.68;;;;;;;10.05;100.00;101333.91;5041924;28;20834;-78
2022/12/24 10:59:39;;;;;;;52.85;6.43;;;;;;;10.03;100.00;101340.56;5040618;28;20120;-78
2022/12/24 11:02:24;;;;;;;71.90;8.27;;;;;;;10.10;100.00;101330.59;5042507;28;20033;-78
2022/12/24 11:04:50;;;;;;;46.40;7.75;;;;;;;10.12;100.00;101345.81;5040550;28;20029;-78
2022/12/24 11:07:21;;;;;;;56.03;7.32;;;;;;;10.10;100.00;101347.03;5037576;28;20032;-78
2022/12/24 11:09:59;;;;;;;49.70;7.78;;;;;;;10.13;100.00;101336.56;5036635;28;20022;-78
2022/12/24 11:12:31;;;;;;;59.15;8.00;;;;;;;10.17;100.00;101328.84;5041169;28;20029;-77
2022/12/24 11:15:15;;;;;;;52.42;7.85;;;;;;;10.16;100.00;101343.56;5037045;28;20461;-78
2022/12/24 11:17:41;;;;;;;47.25;7.38;;;;;;;10.17;100.00;101346.13;5041300;28;20103;-76
2022/12/24 11:20:16;;;;;;;54.33;8.50;;;;;;;10.22;100.00;101342.81;5039479;28;20112;-76
2022/12/24 11:22:48;;;;;;;61.33;7.63;;;;;;;10.29;100.00;101341.06;5054774;28;20033;-76
2022/12/24 11:25:37;;;;;;;48.45;7.63;;;;;;;10.35;100.00;101343.09;5034265;28;20372;-77
2022/12/24 11:28:22;;;;;;;50.75;7.20;;;;;;;10.47;100.00;101344.34;5038182;28;20044;-78
2022/12/24 11:30:56;;;;;;;51.45;6.95;;;;;;;10.47;100.00;101336.13;5038008;28;20036;-78
2022/12/24 11:33:22;;;;;;;47.42;7.68;;;;;;;10.48;100.00;101348.78;5038859;28;20052;-78
2022/12/24 11:35:52;;;;;;;57.30;8.93;;;;;;;10.43;100.00;101349.34;5038746;28;20101;-78